Nyala, Nevada Weather observations

Data are for observation ending at time listed.
 Day   Time    Ave.   Ave.  Ave.  Vector   Max.   Stn.    Total    Solar   Ave.  
  of    of     Air    Rel.  Wind   Wind    Wind   Baro.  Precip.   Rad.    Soil  
Year   Day     Temp.  Hum.  Speed  Dir.    Gust   Pres.                    Temp. 
2014   (PST)    F      %     mph   deg.    mph     mb.     in.     W/m2     F   
------------------------------------------------------------------------------
 293   20:00   68.3    29    9.3   199     18.9    848     0.00       0    65.7
 293   21:00   67.7    29    9.8   196     20.2    848     0.00       0    65.3
 293   22:00   67.3    30   10.6   196     22.1    848     0.00       0    65.0
 293   23:00   65.3    30    6.4   212     15.9    848     0.00       0    64.8
 294    0:00   62.4    32    3.7    13     11.2    847     0.00       0    64.4
 294    1:00   58.4    36    2.4    38      8.0    847     0.00       0    63.8
 294    2:00   64.1    27    5.7   161     21.9    848     0.00       0    63.1
 294    3:00   64.2    28    6.5   184     15.0    848     0.00       0    62.6
 294    4:00   63.0    27    4.6   154     16.5    848     0.00       0    62.3
 294    5:00   55.6    40    4.9    40     14.2    849     0.00       0    61.9
 294    6:00   52.4    48    1.7    45      6.1    850     0.00       0    61.4
 294    7:00   48.8    55    1.7   106      4.6    850     0.00      10    60.7
 294    8:00   59.1    39    1.1   155      5.1    851     0.00     111    60.1
 294    9:00   65.4    31    2.2   275     13.2    851     0.00     188    60.0
 294   10:00   65.6    30    3.6    15     12.4    851     0.00     250    60.4
 294   11:00   69.1    25    2.2   270     11.0    851     0.00     284    60.9
 294   12:00   70.1    23    2.8   275      9.9    850     0.00     249    62.0
 294   13:00   70.6    18    3.2   261     11.9    850     0.00     201    64.0
 294   14:00   69.6    16    1.5    23      5.8    849     0.00     114    65.8
 294   15:00   71.6    13    3.2   232     11.9    849     0.00     131    66.6
 294   16:00   70.3    12    4.5   192      8.6    849     0.00      86    66.7
 294   17:00   67.1    13    2.3   236      9.3    849     0.00      28    66.3
 294   18:00   61.0    13    4.3   119      8.7    849     0.00       0    65.8
 294   19:00   57.9    15    3.3    62      9.1    850     0.00       0    65.0

Return to Nyala, Nevada graphs page.


Western Regional Climate Center,wrcc@dri.edu